Time;durP1;ratioP1;P1;durP2;ratioP2;P2;SDS_P1;SDS_P2;PMS_P1;PMS_P2;Temp;Humidity;BMP_temperature;BMP_pressure;BME280_temperature;BME280_humidity;BME280_pressure;Samples;Min_cycle;Max_cycle;Signal;HPM_P1;HPM_P2
2022/08/09 00:00:20;;;;;;;2.95;1.38;;;;;;;16.66;58.30;98827.56;4909523;29;20047;-75
2022/08/09 00:02:49;;;;;;;3.72;1.40;;;;;;;16.67;56.59;98831.91;4932128;29;20048;-75
2022/08/09 00:05:18;;;;;;;3.30;1.58;;;;;;;16.71;56.63;98821.66;4931888;29;20185;-75
2022/08/09 00:08:06;;;;;;;1.65;1.23;;;;;;;16.64;57.26;98829.59;4919468;29;20050;-74
2022/08/09 00:10:37;;;;;;;1.92;1.33;;;;;;;16.57;56.71;98831.34;4904386;29;20051;-75
2022/08/09 00:13:05;;;;;;;1.48;1.30;;;;;;;16.54;56.45;98829.03;4914768;29;20748;-75
2022/08/09 00:15:45;;;;;;;3.47;1.20;;;;;;;16.53;57.68;98829.22;4929428;29;20476;-75
2022/08/09 00:18:29;;;;;;;1.33;1.23;;;;;;;16.52;57.95;98831.06;4907502;29;20044;-75
2022/08/09 00:21:04;;;;;;;2.72;1.75;;;;;;;16.58;58.01;98824.97;4932320;29;20054;-75
2022/08/09 00:23:35;;;;;;;1.70;1.30;;;;;;;16.65;56.72;98831.25;4916222;29;20058;-73
2022/08/09 00:26:21;;;;;;;4.38;1.35;;;;;;;16.65;55.83;98836.59;4927273;29;20040;-73
2022/08/09 00:28:59;;;;;;;1.40;1.30;;;;;;;16.66;55.35;98834.75;4914401;29;20171;-75
2022/08/09 00:31:26;;;;;;;3.25;1.38;;;;;;;16.66;55.11;98832.91;4932327;29;20047;-75
2022/08/09 00:34:13;;;;;;;2.90;1.42;;;;;;;16.57;54.08;98836.69;4927274;29;20044;-75
2022/08/09 00:36:44;;;;;;;3.95;1.52;;;;;;;16.53;54.93;98831.88;4907823;29;20514;-75
2022/08/09 00:39:11;;;;;;;2.60;1.27;;;;;;;16.47;56.28;98830.78;4938067;29;20134;-75
2022/08/09 00:41:58;;;;;;;1.80;1.30;;;;;;;16.39;57.29;98823.66;4929348;29;20048;-75
2022/08/09 00:44:44;;;;;;;1.60;1.50;;;;;;;16.35;57.77;98821.53;4926983;29;20051;-75
2022/08/09 00:47:13;;;;;;;1.98;1.50;;;;;;;16.33;58.28;98831.59;4932326;29;20126;-75
2022/08/09 00:49:41;;;;;;;2.83;1.95;;;;;;;16.23;56.85;98830.00;4931228;29;20070;-74
2022/08/09 00:52:21;;;;;;;2.03;1.50;;;;;;;16.23;57.25;98831.84;4929617;29;20118;-75
2022/08/09 00:55:00;;;;;;;1.50;1.30;;;;;;;16.15;57.91;98830.06;4904877;29;20051;-73
2022/08/09 00:57:29;;;;;;;2.97;1.60;;;;;;;16.12;57.87;98832.28;4912901;29;20058;-74
2022/08/09 01:00:08;;;;;;;3.75;1.65;;;;;;;16.03;58.28;98836.84;4912541;29;20459;-74
2022/08/09 01:03:12;;;;;;;1.83;1.35;;;;;;;16.00;58.44;98838.03;4932066;29;20574;-74
2022/08/09 01:05:48;;;;;;;3.53;1.20;;;;;;;15.97;58.72;98840.22;4879167;29;20475;-73
2022/08/09 01:08:25;;;;;;;3.92;1.50;;;;;;;15.88;58.26;98835.97;4936842;29;20063;-73
2022/08/09 01:11:02;;;;;;;2.20;1.60;;;;;;;15.89;59.13;98832.28;4920620;29;20048;-73
2022/08/09 01:13:39;;;;;;;3.25;1.77;;;;;;;15.96;58.29;98835.91;4934567;29;20140;-74
2022/08/09 01:16:22;;;;;;;2.45;1.67;;;;;;;15.97;57.51;98837.56;4913946;29;20055;-73
2022/08/09 01:18:52;;;;;;;2.85;2.10;;;;;;;16.03;58.25;98842.16;4910027;29;20051;-74
2022/08/09 01:22:07;;;;;;;2.00;1.70;;;;;;;15.95;58.73;98842.25;4913585;29;20514;-73
2022/08/09 01:24:48;;;;;;;1.50;1.40;;;;;;;15.92;58.69;98838.09;4918490;29;20055;-74
2022/08/09 01:27:18;;;;;;;1.73;1.48;;;;;;;15.90;59.50;98847.28;4914303;29;20099;-74
2022/08/09 01:29:51;;;;;;;2.25;1.27;;;;;;;15.85;59.54;98841.66;4915004;29;20049;-74
2022/08/09 01:32:26;;;;;;;3.40;1.80;;;;;;;15.81;59.65;98846.53;4928027;29;20051;-74
2022/08/09 01:35:27;;;;;;;2.92;1.50;;;;;;;15.76;60.79;98846.22;4916322;29;20040;-74
2022/08/09 01:38:14;;;;;;;1.92;1.70;;;;;;;15.73;60.95;98850.06;4922323;29;20040;-74
2022/08/09 01:40:47;;;;;;;1.85;1.55;;;;;;;15.67;62.00;98848.09;4914432;29;20056;-74
2022/08/09 01:43:32;;;;;;;2.17;1.95;;;;;;;15.70;61.47;98850.44;4918033;29;20123;-74
2022/08/09 01:46:23;;;;;;;2.08;1.80;;;;;;;15.58;60.69;98857.13;4924210;29;20799;-73
2022/08/09 01:48:55;;;;;;;2.45;1.70;;;;;;;15.48;62.30;98857.38;4931436;29;20387;-74
2022/08/09 01:51:22;;;;;;;2.85;1.90;;;;;;;15.37;61.04;98855.09;4928027;29;20503;-74
2022/08/09 01:53:53;;;;;;;3.03;2.10;;;;;;;15.41;62.86;98856.41;4897678;29;20048;-74
2022/08/09 01:56:24;;;;;;;2.00;1.80;;;;;;;15.45;61.85;98862.22;4934028;29;20039;-73
2022/08/09 01:58:52;;;;;;;2.58;1.95;;;;;;;15.46;60.91;98861.22;4920096;29;20405;-73
2022/08/09 02:01:20;;;;;;;2.83;1.90;;;;;;;15.37;60.36;98855.91;4900401;29;20040;-74
2022/08/09 02:04:08;;;;;;;1.80;1.70;;;;;;;15.39;61.57;98860.25;4924333;29;20512;-73
2022/08/09 02:09:28;;;;;;;1.60;1.50;;;;;;;15.39;60.24;98862.91;4921918;29;20106;-73
2022/08/09 02:12:10;;;;;;;1.65;1.55;;;;;;;15.31;60.87;98867.28;4918831;29;20119;-74
2022/08/09 02:14:49;;;;;;;2.92;2.20;;;;;;;15.24;61.28;98881.47;4906397;29;20044;-74
2022/08/09 02:17:21;;;;;;;3.83;2.03;;;;;;;15.27;62.41;98884.63;4915327;29;20073;-73
2022/08/09 02:20:08;;;;;;;5.25;2.45;;;;;;;15.29;62.43;98877.28;4890519;29;20611;-74
2022/08/09 02:22:55;;;;;;;3.42;1.80;;;;;;;15.23;60.62;98874.50;4910247;29;20800;-74
2022/08/09 02:25:25;;;;;;;2.15;1.95;;;;;;;15.26;62.92;98879.47;4916688;29;20043;-73
2022/08/09 02:28:08;;;;;;;2.30;1.80;;;;;;;15.16;60.85;98879.66;4902164;29;20040;-74
2022/08/09 02:30:44;;;;;;;2.00;1.80;;;;;;;15.12;60.79;98879.19;4913590;29;20692;-73
2022/08/09 02:33:15;;;;;;;1.90;1.80;;;;;;;14.98;61.76;98879.91;4930008;29;20043;-73
2022/08/09 02:35:44;;;;;;;2.20;2.00;;;;;;;14.95;62.13;98872.25;4915661;29;20048;-74
2022/08/09 02:38:30;;;;;;;2.28;1.98;;;;;;;14.93;62.92;98879.59;4918798;29;20043;-73
2022/08/09 02:41:09;;;;;;;5.35;2.60;;;;;;;14.95;63.36;98877.56;4913231;29;20055;-73
2022/08/09 02:43:38;;;;;;;1.85;1.75;;;;;;;14.93;62.93;98880.44;4929781;29;20055;-73
2022/08/09 02:46:26;;;;;;;2.70;2.15;;;;;;;15.01;62.56;98881.38;4911293;29;20503;-74
2022/08/09 02:48:58;;;;;;;3.67;1.98;;;;;;;14.94;62.71;98878.59;4910843;29;20075;-73
2022/08/09 02:51:25;;;;;;;3.38;2.13;;;;;;;14.88;61.77;98877.44;4915726;29;20449;-73
2022/08/09 02:53:56;;;;;;;2.78;1.83;;;;;;;14.81;61.57;98873.78;4933950;29;20043;-73
2022/08/09 02:56:27;;;;;;;1.73;1.63;;;;;;;14.79;62.12;98878.44;4916770;29;20060;-73
2022/08/09 02:58:54;;;;;;;2.05;1.90;;;;;;;14.73;63.71;98878.31;4913533;29;20620;-73
2022/08/09 03:01:21;;;;;;;2.53;2.05;;;;;;;14.68;63.33;98878.81;4907041;29;20698;-74
2022/08/09 03:04:09;;;;;;;2.15;2.05;;;;;;;14.62;63.31;98874.19;4926941;29;20047;-73
2022/08/09 03:06:44;;;;;;;2.65;2.03;;;;;;;14.58;63.41;98870.19;4926689;29;20384;-73
2022/08/09 03:09:15;;;;;;;3.95;2.28;;;;;;;14.59;63.33;98877.19;4902928;29;20546;-73
2022/08/09 03:11:43;;;;;;;2.90;2.30;;;;;;;14.54;63.83;98871.53;4931557;29;20063;-73
2022/08/09 03:14:30;;;;;;;3.05;1.85;;;;;;;14.47;62.89;98874.00;4929917;29;20040;-73
2022/08/09 03:16:58;;;;;;;3.22;2.25;;;;;;;14.42;63.38;98879.81;4931006;29;20051;-73
2022/08/09 03:19:29;;;;;;;4.03;2.20;;;;;;;14.37;63.54;98871.50;4931086;29;20519;-73
2022/08/09 03:22:17;;;;;;;2.60;2.40;;;;;;;14.37;64.50;98868.00;4925169;29;20395;-73
2022/08/09 03:24:57;;;;;;;3.25;2.30;;;;;;;14.41;64.77;98864.84;4933402;29;20050;-73
2022/08/09 03:27:50;;;;;;;5.38;3.08;;;;;;;14.39;65.01;98869.50;4931081;29;20039;-74
2022/08/09 03:30:17;;;;;;;3.35;2.50;;;;;;;14.40;63.87;98871.19;4913169;29;20416;-74
2022/08/09 03:33:06;;;;;;;3.65;2.72;;;;;;;14.40;63.41;98871.19;4914897;29;20473;-74
2022/08/09 03:35:47;;;;;;;2.40;2.20;;;;;;;14.37;64.31;98871.50;4924610;29;20098;-74
2022/08/09 03:38:37;;;;;;;3.03;2.50;;;;;;;14.28;64.92;98878.66;4918217;29;20082;-74
2022/08/09 03:41:13;;;;;;;2.38;2.17;;;;;;;14.30;64.25;98878.50;4916115;29;20458;-74
2022/08/09 03:43:45;;;;;;;6.15;2.75;;;;;;;14.25;64.03;98896.81;4916805;29;20055;-74
2022/08/09 03:46:33;;;;;;;2.53;2.03;;;;;;;14.18;63.98;98891.31;4925167;29;20047;-73
2022/08/09 03:49:02;;;;;;;3.83;3.00;;;;;;;14.14;64.96;98889.13;4915568;29;20050;-74
2022/08/09 03:51:34;;;;;;;3.08;2.53;;;;;;;14.20;65.02;98889.31;4905861;29;20055;-73
2022/08/09 03:54:23;;;;;;;3.03;2.55;;;;;;;14.22;65.29;98889.16;4914854;29;20040;-73
2022/08/09 03:56:56;;;;;;;3.28;2.05;;;;;;;14.23;64.83;98882.81;4914022;29;20081;-73
2022/08/09 03:59:24;;;;;;;5.28;2.63;;;;;;;14.18;64.24;98895.78;4912654;29;20099;-74
2022/08/09 04:02:10;;;;;;;2.42;2.22;;;;;;;14.12;64.75;98885.81;4906156;29;20054;-73
2022/08/09 04:04:40;;;;;;;4.95;3.22;;;;;;;14.11;65.09;98894.78;4929283;29;20052;-74
2022/08/09 04:07:11;;;;;;;2.60;2.40;;;;;;;14.10;64.59;98893.13;4914093;29;20748;-74
2022/08/09 04:09:39;;;;;;;4.18;2.75;;;;;;;14.07;64.88;98888.16;4921751;29;20117;-73
2022/08/09 04:12:15;;;;;;;3.53;2.45;;;;;;;14.04;64.98;98895.47;4936598;29;20161;-73
2022/08/09 04:14:56;;;;;;;2.90;2.63;;;;;;;14.02;66.04;98900.09;4927699;29;20106;-73
2022/08/09 04:17:38;;;;;;;3.13;2.58;;;;;;;13.99;64.77;98900.44;4931287;29;20401;-73
2022/08/09 04:20:10;;;;;;;2.92;2.50;;;;;;;13.94;65.10;98897.44;4913844;29;20044;-73
2022/08/09 04:22:39;;;;;;;2.63;2.42;;;;;;;14.07;66.51;98896.97;4917997;29;20466;-73
2022/08/09 04:25:10;;;;;;;4.63;2.40;;;;;;;14.13;65.22;98906.09;4929355;29;20051;-73
2022/08/09 04:27:41;;;;;;;3.60;2.50;;;;;;;14.07;65.26;98898.78;4917132;29;20051;-73
2022/08/09 04:30:19;;;;;;;3.78;2.60;;;;;;;14.07;65.45;98906.78;4928626;29;20122;-74
2022/08/09 04:32:49;;;;;;;3.17;2.88;;;;;;;14.05;66.03;98910.41;4914814;29;20086;-74
2022/08/09 04:35:16;;;;;;;3.35;2.33;;;;;;;14.06;65.55;98913.94;4916910;29;20130;-74
2022/08/09 04:37:47;;;;;;;3.22;2.80;;;;;;;14.18;65.63;98911.75;4932538;29;20044;-74
2022/08/09 04:40:14;;;;;;;2.97;2.72;;;;;;;14.19;65.04;98914.28;4928022;29;20684;-74
2022/08/09 04:42:45;;;;;;;2.70;2.50;;;;;;;14.22;65.83;98921.91;4898820;29;20147;-74
2022/08/09 04:45:15;;;;;;;4.65;2.50;;;;;;;14.31;65.81;98925.41;4917822;29;20058;-73
2022/08/09 04:47:46;;;;;;;4.15;2.75;;;;;;;14.40;65.73;98929.75;4919279;29;20047;-74
2022/08/09 04:50:28;;;;;;;3.50;2.42;;;;;;;14.78;65.61;98935.41;4931435;29;20051;-73
2022/08/09 04:53:06;;;;;;;3.35;2.65;;;;;;;14.75;63.69;98943.72;4925093;29;20060;-72
2022/08/09 04:55:42;;;;;;;5.40;2.55;;;;;;;14.79;64.35;98945.03;4908315;29;20078;-73
2022/08/09 04:58:28;;;;;;;6.20;2.55;;;;;;;14.83;63.56;98942.88;4922501;29;20123;-73
2022/08/09 05:00:58;;;;;;;8.73;2.55;;;;;;;14.86;64.64;98947.88;4917414;29;20134;-73
2022/08/09 05:03:25;;;;;;;4.72;2.60;;;;;;;14.93;63.34;98956.88;4926765;29;20044;-73
2022/08/09 05:06:10;;;;;;;2.97;2.58;;;;;;;14.93;62.50;98948.88;4933873;29;20452;-73
2022/08/09 05:08:51;;;;;;;3.20;2.45;;;;;;;14.90;62.61;98958.03;4926852;29;20040;-73
2022/08/09 05:11:26;;;;;;;3.75;2.63;;;;;;;14.99;62.71;98958.00;4922078;29;20048;-74
2022/08/09 05:13:58;;;;;;;6.10;3.05;;;;;;;15.07;62.09;98961.47;4920920;29;20052;-75
2022/08/09 05:16:25;;;;;;;6.05;3.17;;;;;;;15.13;63.07;98966.13;4927269;29;20040;-73
2022/08/09 05:18:57;;;;;;;;;;;;;;;15.23;62.63;98960.59;4925841;29;20043;-73
2022/08/09 05:21:27;;;;;;;3.17;2.63;;;;;;;15.31;63.51;98965.91;4922719;29;19937;-73
2022/08/09 05:23:57;;;;;;;3.03;2.47;;;;;;;15.41;63.66;98967.56;4915888;29;20047;-73
2022/08/09 05:26:29;;;;;;;3.17;2.45;;;;;;;15.59;61.20;98966.31;4931421;29;20044;-73
2022/08/09 05:29:20;;;;;;;3.33;2.63;;;;;;;15.73;61.54;98972.78;4927498;29;20048;-73
2022/08/09 05:31:59;;;;;;;4.43;2.72;;;;;;;15.88;60.67;98962.22;4927778;29;20746;-73
2022/08/09 05:34:27;;;;;;;5.85;2.92;;;;;;;15.95;61.53;98965.81;4926853;29;20595;-73
2022/08/09 05:37:03;;;;;;;3.28;2.78;;;;;;;16.16;60.16;98978.53;4904042;29;20055;-73
2022/08/09 05:39:36;;;;;;;3.85;2.33;;;;;;;16.33;59.90;98978.44;4906763;29;20372;-73
2022/08/09 05:42:14;;;;;;;3.58;2.45;;;;;;;16.49;58.39;98977.50;4915134;29;20159;-73
2022/08/09 05:44:46;;;;;;;2.55;2.20;;;;;;;16.67;58.08;98968.16;4906163;29;20055;-73
2022/08/09 05:47:18;;;;;;;2.85;2.42;;;;;;;16.81;58.11;98971.91;4925425;29;20131;-73
2022/08/09 05:49:47;;;;;;;3.33;2.58;;;;;;;16.82;57.01;98972.72;4913270;29;20048;-73
2022/08/09 05:52:34;;;;;;;6.38;2.53;;;;;;;16.97;56.63;98976.25;4921418;29;20391;-73
2022/08/09 05:55:05;;;;;;;5.07;2.65;;;;;;;16.98;59.93;98982.41;4911526;29;20039;-73
2022/08/09 05:57:34;;;;;;;3.08;2.78;;;;;;;17.10;58.15;98978.31;4932622;29;20130;-73
2022/08/09 06:00:21;;;;;;;5.82;2.70;;;;;;;17.25;58.17;98976.47;4919849;29;20384;-73
2022/08/09 06:02:47;;;;;;;4.18;2.75;;;;;;;17.41;57.95;98977.31;4926342;29;20689;-73
2022/08/09 06:05:20;;;;;;;3.25;2.95;;;;;;;17.40;56.08;98976.47;4926477;29;20521;-73
2022/08/09 06:08:07;;;;;;;6.63;3.30;;;;;;;17.27;59.08;98981.63;4904908;29;20119;-74
2022/08/09 06:10:36;;;;;;;4.40;3.15;;;;;;;17.30;59.19;98986.63;4922936;29;20075;-74
2022/08/09 06:13:08;;;;;;;4.45;3.60;;;;;;;17.43;57.57;98985.97;4921721;29;20051;-73
2022/08/09 06:15:45;;;;;;;6.95;3.60;;;;;;;17.48;58.39;98983.56;4922622;29;20413;-74
2022/08/09 06:18:20;;;;;;;3.58;2.83;;;;;;;17.52;58.10;98993.72;4910564;29;20091;-73
2022/08/09 06:20:53;;;;;;;2.90;2.60;;;;;;;17.64;54.93;98988.75;4902571;29;20135;-73
2022/08/09 06:23:26;;;;;;;3.63;2.80;;;;;;;17.78;56.50;98993.22;4920520;29;20838;-74
2022/08/09 06:26:13;;;;;;;3.03;2.15;;;;;;;17.89;56.14;98991.94;4909933;29;20051;-74
2022/08/09 06:28:46;;;;;;;2.90;2.70;;;;;;;17.87;56.62;98999.34;4934398;29;20040;-74
2022/08/09 06:31:12;;;;;;;5.13;2.38;;;;;;;17.92;56.84;98991.56;4928151;29;20533;-74
2022/08/09 06:33:39;;;;;;;2.67;2.47;;;;;;;18.16;55.32;98989.56;4908741;29;20071;-73
2022/08/09 06:36:14;;;;;;;4.95;2.55;;;;;;;18.33;55.74;98990.19;4924654;29;20040;-74
2022/08/09 06:38:41;;;;;;;4.95;2.33;;;;;;;18.50;54.96;98998.78;4926210;29;20716;-74
2022/08/09 06:41:16;;;;;;;3.03;2.13;;;;;;;18.71;51.76;98998.78;4930532;29;20044;-73
2022/08/09 06:43:46;;;;;;;3.80;2.40;;;;;;;18.89;52.59;99000.19;4918666;29;20045;-74
2022/08/09 06:46:14;;;;;;;5.60;2.30;;;;;;;19.04;51.26;98999.09;4910144;29;20066;-74
2022/08/09 06:49:01;;;;;;;2.25;2.05;;;;;;;19.15;52.15;99004.94;4919766;29;20035;-74
2022/08/09 06:51:27;;;;;;;2.20;2.00;;;;;;;19.08;51.81;99003.00;4915103;29;20074;-74
2022/08/09 06:53:54;;;;;;;6.15;2.17;;;;;;;19.26;52.09;99010.56;4912705;29;20460;-74
2022/08/09 06:56:26;;;;;;;5.40;2.40;;;;;;;19.43;51.59;99004.91;4922980;29;20434;-73
2022/08/09 06:58:57;;;;;;;3.13;2.25;;;;;;;19.64;50.81;99004.84;4924057;29;20035;-74
2022/08/09 07:01:44;;;;;;;4.95;1.90;;;;;;;19.77;50.68;99005.94;4934696;29;20053;-73
2022/08/09 07:04:25;;;;;;;2.47;2.28;;;;;;;19.91;50.02;99004.97;4927157;29;20501;-74
2022/08/09 07:06:53;;;;;;;2.35;2.15;;;;;;;19.96;49.93;99002.53;4923280;29;20091;-74
2022/08/09 07:09:28;;;;;;;6.32;2.33;;;;;;;20.06;49.56;99013.69;4916262;29;20048;-74
2022/08/09 07:12:15;;;;;;;4.05;2.60;;;;;;;19.80;51.22;99010.91;4929803;29;20040;-74
2022/08/09 07:14:44;;;;;;;2.72;2.38;;;;;;;19.89;50.65;99015.09;4911256;29;20035;-74
2022/08/09 07:17:18;;;;;;;7.50;2.60;;;;;;;19.82;52.61;99019.59;4933597;29;20051;-74
2022/08/09 07:19:45;;;;;;;8.70;2.30;;;;;;;19.80;51.38;99021.63;4916549;29;20038;-74
2022/08/09 07:22:17;;;;;;;5.68;2.60;;;;;;;19.87;53.39;99027.88;4930227;29;20078;-73
2022/08/09 07:24:43;;;;;;;3.60;2.20;;;;;;;19.94;53.02;99024.19;4914979;29;20048;-74
2022/08/09 07:27:15;;;;;;;6.90;2.25;;;;;;;20.00;52.26;99027.94;4927902;29;20048;-74
2022/08/09 07:30:00;;;;;;;3.35;1.98;;;;;;;20.23;52.31;99026.78;4926401;29;20074;-74
2022/08/09 07:32:27;;;;;;;3.70;2.28;;;;;;;20.39;49.48;99031.78;4927684;29;20099;-74
2022/08/09 07:35:00;;;;;;;3.80;2.38;;;;;;;20.32;51.80;99030.94;4915195;29;20043;-74
2022/08/09 07:37:28;;;;;;;2.33;2.10;;;;;;;20.38;51.65;99030.13;4930355;29;20123;-74
2022/08/09 07:39:55;;;;;;;5.68;2.17;;;;;;;20.54;49.07;99028.97;4929145;29;20499;-73
2022/08/09 07:42:22;;;;;;;6.88;2.53;;;;;;;20.77;50.54;99024.03;4932468;29;20119;-74
2022/08/09 07:44:58;;;;;;;5.18;2.55;;;;;;;21.07;47.84;99020.09;4910830;29;20392;-73
2022/08/09 07:47:31;;;;;;;2.28;2.08;;;;;;;21.00;49.43;99023.59;4928607;29;20044;-73
2022/08/09 07:50:15;;;;;;;3.47;1.80;;;;;;;21.21;47.59;99024.44;4925117;29;20051;-74
2022/08/09 07:52:42;;;;;;;3.22;2.10;;;;;;;21.73;46.34;99028.09;4926139;29;20048;-74
2022/08/09 07:55:12;;;;;;;2.20;1.80;;;;;;;21.70;48.12;99025.81;4935202;29;20067;-74
2022/08/09 07:57:41;;;;;;;3.00;2.25;;;;;;;21.89;49.03;99024.91;4928586;29;20131;-75
2022/08/09 08:00:20;;;;;;;4.45;2.25;;;;;;;22.08;46.03;99023.19;4905432;29;20043;-74
2022/08/09 08:03:07;;;;;;;4.18;2.40;;;;;;;22.25;45.76;99023.56;4928829;29;20067;-73
2022/08/09 08:05:38;;;;;;;4.57;2.53;;;;;;;22.53;45.25;99027.75;4893429;29;20063;-75
2022/08/09 08:08:23;;;;;;;3.05;2.10;;;;;;;22.24;45.16;99029.16;4926188;29;20114;-75
2022/08/09 08:11:13;;;;;;;3.95;2.00;;;;;;;22.77;44.88;99021.53;4918951;29;20499;-74
2022/08/09 08:14:00;;;;;;;2.17;1.85;;;;;;;23.02;43.67;99030.75;4933531;29;20052;-73
2022/08/09 08:16:28;;;;;;;2.95;2.40;;;;;;;22.88;43.25;99022.75;4898857;29;20048;-74
2022/08/09 08:18:58;;;;;;;2.90;2.05;;;;;;;23.08;45.37;99033.38;4920852;29;20078;-75
2022/08/09 08:21:30;;;;;;;3.20;1.83;;;;;;;23.26;42.56;99029.09;4920618;29;20044;-74
2022/08/09 08:23:58;;;;;;;2.40;2.05;;;;;;;23.42;41.92;99031.22;4905585;29;20043;-73
2022/08/09 08:26:27;;;;;;;2.92;1.80;;;;;;;23.52;43.45;99028.00;4927844;29;20071;-74
2022/08/09 08:29:16;;;;;;;6.90;2.28;;;;;;;23.53;42.87;99025.06;4906047;29;20058;-74
2022/08/09 08:31:54;;;;;;;3.13;2.28;;;;;;;23.77;43.71;99027.97;4903021;29;20142;-74
2022/08/09 08:34:31;;;;;;;4.35;2.08;;;;;;;24.29;41.48;99025.66;4924563;29;20044;-73
2022/08/09 08:36:59;;;;;;;1.70;1.60;;;;;;;24.59;40.59;99024.84;4906907;29;20047;-73
2022/08/09 08:39:27;;;;;;;2.17;1.60;;;;;;;24.66;39.59;99020.16;4919993;29;20122;-74
2022/08/09 08:41:54;;;;;;;2.10;1.70;;;;;;;24.51;40.06;99016.00;4925396;29;20410;-73
2022/08/09 08:44:27;;;;;;;2.78;1.95;;;;;;;24.33;42.44;99026.84;4920029;29;20035;-74
2022/08/09 08:46:57;;;;;;;2.13;1.90;;;;;;;24.56;42.27;99028.00;4922565;29;20422;-73
2022/08/09 08:49:38;;;;;;;2.30;1.80;;;;;;;25.10;37.63;99015.28;4905932;29;20506;-73
2022/08/09 08:52:19;;;;;;;7.10;1.98;;;;;;;25.37;36.46;99016.50;4927997;29;20137;-74
2022/08/09 08:55:09;;;;;;;3.40;2.30;;;;;;;25.67;36.71;99026.34;4918216;29;20071;-74
2022/08/09 08:57:39;;;;;;;2.03;1.73;;;;;;;25.83;35.88;99017.50;4896377;29;20050;-75
2022/08/09 09:00:09;;;;;;;2.33;1.73;;;;;;;25.92;36.06;99023.41;4924451;29;20044;-74
2022/08/09 09:02:49;;;;;;;5.22;1.88;;;;;;;25.95;35.92;99024.81;4926254;29;20047;-74
2022/08/09 09:05:22;;;;;;;9.25;1.70;;;;;;;26.16;34.97;99029.56;4907996;29;20043;-75
2022/08/09 09:08:13;;;;;;;1.85;1.48;;;;;;;26.37;34.60;99019.94;4890037;29;20048;-73
2022/08/09 09:11:05;;;;;;;2.60;1.55;;;;;;;26.42;35.03;99020.03;4898715;29;20048;-74
2022/08/09 09:13:42;;;;;;;2.60;1.55;;;;;;;26.05;35.70;99019.59;4905782;29;20065;-74
2022/08/09 09:16:26;;;;;;;2.72;1.75;;;;;;;26.29;35.78;99014.91;4914566;29;20055;-75
2022/08/09 09:19:07;;;;;;;2.92;1.70;;;;;;;26.30;37.43;99013.00;4921718;29;20408;-73
2022/08/09 09:21:59;;;;;;;2.08;1.88;;;;;;;26.66;36.10;99012.63;4909291;29;20111;-74
2022/08/09 09:24:32;;;;;;;2.10;1.83;;;;;;;26.97;35.00;99007.72;4923497;29;20052;-75
2022/08/09 09:27:01;;;;;;;1.60;1.50;;;;;;;27.01;33.07;98997.97;4917942;29;20126;-74
2022/08/09 09:29:30;;;;;;;2.72;1.60;;;;;;;26.97;35.22;99002.28;4908777;29;20119;-74
2022/08/09 09:32:22;;;;;;;2.35;1.48;;;;;;;27.15;35.19;98999.31;4913161;29;20040;-74
2022/08/09 09:35:07;;;;;;;1.58;1.40;;;;;;;27.60;32.53;99002.94;4926088;29;20158;-74
2022/08/09 09:37:37;;;;;;;1.83;1.50;;;;;;;27.29;33.08;99004.41;4920167;29;20507;-73
2022/08/09 09:40:09;;;;;;;2.10;1.60;;;;;;;27.43;31.77;99000.25;4923124;29;20091;-74
2022/08/09 09:42:39;;;;;;;2.45;1.90;;;;;;;27.07;32.07;98994.28;4892626;29;20051;-74
2022/08/09 09:45:10;;;;;;;3.25;1.58;;;;;;;26.81;34.55;98992.25;4906471;29;20043;-74
2022/08/09 09:47:53;;;;;;;1.77;1.67;;;;;;;27.09;32.72;99000.31;4895707;29;20070;-74
2022/08/09 09:50:45;;;;;;;2.95;1.40;;;;;;;27.12;34.68;98997.09;4922393;29;20075;-73
2022/08/09 09:53:24;;;;;;;3.10;1.52;;;;;;;27.28;32.24;98998.16;4904536;29;20042;-73
2022/08/09 09:56:11;;;;;;;1.80;1.55;;;;;;;27.35;32.12;98987.09;4907760;29;20637;-73
2022/08/09 09:58:59;;;;;;;2.05;1.38;;;;;;;27.21;32.85;98983.13;4920962;29;20043;-72
2022/08/09 10:01:28;;;;;;;2.63;2.15;;;;;;;26.66;34.76;98980.03;4907004;29;20040;-73
2022/08/09 10:04:15;;;;;;;2.05;1.45;;;;;;;27.07;31.56;98991.56;4923217;29;20070;-73
2022/08/09 10:06:56;;;;;;;2.47;1.85;;;;;;;27.07;31.24;98988.03;4924667;29;20099;-73
2022/08/09 10:09:24;;;;;;;1.42;1.23;;;;;;;26.77;32.70;98982.94;4907611;29;20127;-72
2022/08/09 10:11:59;;;;;;;2.03;1.70;;;;;;;26.79;31.93;98984.34;4922216;29;20040;-73
2022/08/09 10:14:41;;;;;;;3.15;1.60;;;;;;;26.91;32.22;98990.50;4911329;29;20055;-73
2022/08/09 10:17:14;;;;;;;2.65;1.52;;;;;;;27.11;31.06;98987.28;4912925;29;20098;-73
2022/08/09 10:20:16;;;;;;;2.80;1.67;;;;;;;27.16;32.85;98989.25;4916262;29;20163;-73
2022/08/09 10:23:15;;;;;;;2.03;1.45;;;;;;;27.11;31.95;98987.28;4926888;29;20044;-73
2022/08/09 10:25:46;;;;;;;5.45;1.77;;;;;;;27.12;30.64;98991.66;4899957;29;20044;-73
2022/08/09 10:28:34;;;;;;;2.10;1.90;;;;;;;26.67;35.05;98984.44;4904285;29;20074;-72
2022/08/09 10:31:01;;;;;;;2.03;1.63;;;;;;;26.90;31.85;98975.28;4911010;29;20091;-72
2022/08/09 10:33:48;;;;;;;3.80;1.63;;;;;;;27.05;32.48;98982.03;4924485;29;20067;-72
2022/08/09 10:36:36;;;;;;;3.13;1.50;;;;;;;26.80;32.80;98971.56;4925904;29;20534;-72
2022/08/09 10:39:03;;;;;;;6.30;1.63;;;;;;;27.04;30.08;98975.78;4922865;29;20523;-73
2022/08/09 10:41:42;;;;;;;2.30;1.45;;;;;;;27.16;29.14;98975.66;4922655;29;20040;-73
2022/08/09 10:44:09;;;;;;;3.08;1.38;;;;;;;26.84;32.72;98964.59;4890648;29;20056;-73
2022/08/09 10:46:47;;;;;;;4.32;1.50;;;;;;;27.00;30.51;98961.03;4904170;29;20055;-73
2022/08/09 10:49:30;;;;;;;3.60;1.63;;;;;;;26.77;30.94;98958.50;4926451;29;20122;-73
2022/08/09 10:52:37;;;;;;;1.58;1.48;;;;;;;26.84;30.80;98961.88;4910505;29;20046;-73
2022/08/09 10:55:23;;;;;;;2.53;1.30;;;;;;;27.10;31.44;98957.66;4924340;29;20056;-72
2022/08/09 10:57:50;;;;;;;1.63;1.40;;;;;;;27.20;29.46;98959.72;4923452;29;20052;-73
2022/08/09 11:00:27;;;;;;;2.38;1.27;;;;;;;27.07;30.40;98955.44;4906654;29;20036;-73
2022/08/09 11:02:55;;;;;;;5.15;1.40;;;;;;;27.12;30.92;98959.06;4918896;29;20056;-73
2022/08/09 11:06:14;;;;;;;2.22;1.60;;;;;;;26.86;31.90;98955.13;4911547;29;20502;-73
2022/08/09 11:08:42;;;;;;;3.70;1.42;;;;;;;26.71;32.31;98961.13;4925756;29;20421;-73
2022/08/09 11:11:15;;;;;;;1.70;1.50;;;;;;;26.56;31.67;98954.63;4920614;29;20043;-73
2022/08/09 11:13:41;;;;;;;2.22;1.77;;;;;;;26.79;31.08;98954.47;4907182;29;20054;-73
2022/08/09 11:16:38;;;;;;;1.63;1.40;;;;;;;27.07;32.45;98958.97;4911778;29;20044;-73
2022/08/09 11:19:07;;;;;;;2.83;1.50;;;;;;;27.12;31.18;98959.06;4908637;29;20044;-73
2022/08/09 11:21:55;;;;;;;3.20;1.33;;;;;;;27.36;32.53;98967.03;4913107;29;20044;-73
2022/08/09 11:25:04;;;;;;;2.92;1.67;;;;;;;26.83;32.59;98942.06;4942528;29;20040;-72
2022/08/09 11:27:39;;;;;;;2.72;1.42;;;;;;;26.67;32.86;98942.88;4931318;29;21256;-73
2022/08/09 11:30:26;;;;;;;2.08;1.40;;;;;;;26.65;32.65;98939.59;4916810;29;20050;-73
2022/08/09 11:33:03;;;;;;;3.25;1.70;;;;;;;26.58;31.28;98941.66;4930899;29;20102;-75
2022/08/09 11:35:45;;;;;;;4.15;1.50;;;;;;;26.46;33.10;98944.38;4909126;29;20047;-74
2022/08/09 11:38:27;;;;;;;1.60;1.50;;;;;;;26.46;31.92;98937.09;4908683;29;20052;-74
2022/08/09 11:41:02;;;;;;;3.50;1.58;;;;;;;26.49;34.19;98942.03;4925918;29;20040;-74
2022/08/09 11:43:30;;;;;;;3.00;1.60;;;;;;;26.56;32.77;98941.06;4924891;29;20467;-73
2022/08/09 11:46:02;;;;;;;5.18;1.50;;;;;;;26.91;32.53;98944.34;4906645;29;20846;-73
2022/08/09 11:48:30;;;;;;;1.70;1.38;;;;;;;27.27;29.59;98927.78;4926465;29;20123;-73
2022/08/09 11:50:57;;;;;;;1.75;1.63;;;;;;;27.13;30.77;98928.09;4907477;29;20778;-74
2022/08/09 11:53:44;;;;;;;2.72;1.50;;;;;;;27.18;29.80;98926.56;4927585;29;20502;-74
2022/08/09 11:56:29;;;;;;;1.40;1.30;;;;;;;27.00;31.86;98924.94;4920667;29;20446;-73
2022/08/09 11:59:27;;;;;;;2.08;1.60;;;;;;;26.95;30.89;98927.56;4910542;29;20039;-73
2022/08/09 12:01:59;;;;;;;3.17;2.00;;;;;;;27.07;31.67;98918.25;4907209;29;20051;-74
2022/08/09 12:04:45;;;;;;;2.47;1.33;;;;;;;26.99;29.08;98915.13;4911285;29;20048;-74
2022/08/09 12:07:12;;;;;;;2.58;1.70;;;;;;;27.00;29.31;98911.34;4927695;29;20114;-73
2022/08/09 12:09:42;;;;;;;3.60;1.33;;;;;;;27.09;29.68;98912.56;4925156;29;20051;-73
2022/08/09 12:12:17;;;;;;;1.48;1.38;;;;;;;27.54;28.65;98915.09;4924135;29;20051;-74
2022/08/09 12:15:36;;;;;;;2.25;1.48;;;;;;;27.55;28.99;98916.72;4927627;29;20044;-73
2022/08/09 12:18:18;;;;;;;5.45;1.70;;;;;;;27.09;30.21;98915.25;4888505;29;20052;-74
2022/08/09 12:20:58;;;;;;;1.40;1.30;;;;;;;27.14;27.80;98905.28;4894960;29;20043;-74